createdAt,value
2018-03-31T00:00:51.466Z,994.91
2018-03-31T00:01:51.438Z,994.97
2018-03-31T00:02:51.380Z,994.96
2018-03-31T00:03:51.331Z,994.96
2018-03-31T00:04:51.285Z,995.02
2018-03-31T00:05:51.239Z,994.99
2018-03-31T00:06:51.215Z,995.01
2018-03-31T00:07:51.203Z,995.05
2018-03-31T00:08:51.105Z,995.05
2018-03-31T00:09:51.063Z,995.07
2018-03-31T00:10:51.027Z,995.06
2018-03-31T00:11:50.971Z,995.06
2018-03-31T00:12:50.927Z,995.05
2018-03-31T00:13:50.881Z,995.03
2018-03-31T00:14:50.836Z,995.08
2018-03-31T00:15:50.791Z,995.07
2018-03-31T00:16:50.748Z,995.12
2018-03-31T00:17:50.702Z,995.15
2018-03-31T00:18:50.655Z,995.12
2018-03-31T00:19:50.624Z,995.10
2018-03-31T00:20:50.567Z,995.06
2018-03-31T00:21:50.520Z,995.08
2018-03-31T00:22:50.477Z,995.08
2018-03-31T00:23:50.454Z,995.10
2018-03-31T00:24:50.383Z,995.09
2018-03-31T00:25:50.341Z,995.07
2018-03-31T00:26:50.309Z,995.10
2018-03-31T00:27:50.248Z,995.07
2018-03-31T00:28:50.203Z,995.07
2018-03-31T00:29:50.162Z,995.08
2018-03-31T00:30:50.115Z,995.10
2018-03-31T00:31:50.069Z,995.10
2018-03-31T00:32:50.025Z,995.10
2018-03-31T00:33:49.980Z,995.11
2018-03-31T00:34:49.936Z,995.12
2018-03-31T00:35:49.891Z,995.14
2018-03-31T00:36:49.848Z,995.13
2018-03-31T00:37:49.842Z,995.12
2018-03-31T00:38:49.756Z,995.07
2018-03-31T00:39:49.714Z,995.16
2018-03-31T00:40:49.665Z,995.17
2018-03-31T00:41:49.620Z,995.15
2018-03-31T00:42:49.580Z,995.11
2018-03-31T00:43:49.628Z,995.12
2018-03-31T00:44:49.485Z,995.13
2018-03-31T00:45:49.445Z,995.12
2018-03-31T00:46:49.430Z,995.16
2018-03-31T00:47:49.350Z,995.15
2018-03-31T00:48:49.309Z,995.11
2018-03-31T00:49:49.262Z,995.11
2018-03-31T00:50:49.222Z,995.15
2018-03-31T00:51:49.219Z,995.13
2018-03-31T00:52:49.124Z,995.14
2018-03-31T00:53:49.083Z,995.14
2018-03-31T00:54:49.036Z,995.08
2018-03-31T00:55:48.989Z,995.08
2018-03-31T00:56:48.943Z,995.08
2018-03-31T00:57:48.907Z,995.06
2018-03-31T00:58:48.892Z,995.04
2018-03-31T00:59:48.814Z,995.05
2018-03-31T01:00:48.764Z,995.05
2018-03-31T01:01:48.718Z,995.03
2018-03-31T01:02:48.675Z,995.05
2018-03-31T01:03:48.629Z,995.02
2018-03-31T01:04:48.586Z,995.03
2018-03-31T01:05:48.541Z,995.04
2018-03-31T01:06:48.495Z,995.06
2018-03-31T01:07:48.451Z,994.99
2018-03-31T01:08:48.405Z,995.07
2018-03-31T01:09:48.360Z,995.08
2018-03-31T01:10:48.320Z,995.09
2018-03-31T01:11:48.270Z,995.08
2018-03-31T01:12:48.223Z,995.04
2018-03-31T01:13:48.180Z,995.02
2018-03-31T01:14:48.133Z,995.07
2018-03-31T01:15:48.089Z,995.05
2018-03-31T01:16:48.044Z,995.03
2018-03-31T01:17:48.004Z,995.06
2018-03-31T01:18:47.960Z,995.02
2018-03-31T01:19:47.928Z,995.05
2018-03-31T01:20:47.862Z,995.03
2018-03-31T01:21:47.820Z,995.02
2018-03-31T01:22:47.775Z,995.04
2018-03-31T01:23:47.728Z,995.00
2018-03-31T01:24:47.688Z,995.03
2018-03-31T01:25:47.646Z,995.02
2018-03-31T01:26:47.593Z,995.01
2018-03-31T01:27:47.549Z,994.99
2018-03-31T01:28:47.506Z,995.01
2018-03-31T01:29:47.460Z,995.00
2018-03-31T01:30:47.416Z,995.00
2018-03-31T01:31:47.365Z,995.02
2018-03-31T01:32:47.321Z,994.99
2018-03-31T01:33:47.276Z,994.99
2018-03-31T01:34:47.232Z,995.01
2018-03-31T01:35:47.187Z,995.03
2018-03-31T01:36:47.147Z,995.06
2018-03-31T01:37:47.096Z,995.01
2018-03-31T01:38:47.052Z,995.07
2018-03-31T01:39:47.003Z,995.03
2018-03-31T01:40:46.964Z,995.06
2018-03-31T01:41:46.980Z,995.05
2018-03-31T01:42:46.869Z,995.05
2018-03-31T01:43:46.828Z,995.04
2018-03-31T01:44:46.778Z,995.02
2018-03-31T01:45:46.732Z,995.04
2018-03-31T01:46:46.687Z,995.03
2018-03-31T01:47:46.639Z,995.03
2018-03-31T01:48:46.594Z,995.04
2018-03-31T01:49:46.600Z,995.07
2018-03-31T01:50:46.505Z,995.07
2018-03-31T01:51:46.457Z,995.11
2018-03-31T01:52:46.414Z,995.12
2018-03-31T01:53:46.366Z,995.10
2018-03-31T01:54:46.322Z,995.09
2018-03-31T01:55:46.276Z,995.10
2018-03-31T01:56:46.237Z,995.09
2018-03-31T01:57:46.197Z,995.13
2018-03-31T01:58:46.147Z,995.09
2018-03-31T01:59:46.100Z,995.14
2018-03-31T02:00:46.052Z,995.10
2018-03-31T02:01:46.002Z,995.11
2018-03-31T02:02:45.960Z,995.12
2018-03-31T02:03:46.105Z,995.12
2018-03-31T02:04:45.866Z,995.14
2018-03-31T02:05:45.822Z,995.15
2018-03-31T02:06:45.776Z,995.10
2018-03-31T02:07:45.732Z,995.15
2018-03-31T02:08:45.682Z,995.18
2018-03-31T02:09:45.639Z,995.17
2018-03-31T02:10:45.591Z,995.19
2018-03-31T02:11:45.544Z,995.15
2018-03-31T02:12:45.501Z,995.15
2018-03-31T02:13:45.461Z,995.14
2018-03-31T02:14:45.408Z,995.17
2018-03-31T02:15:45.363Z,995.11
2018-03-31T02:16:45.318Z,995.16
2018-03-31T02:17:45.274Z,995.14
2018-03-31T02:18:45.225Z,995.12
2018-03-31T02:19:45.178Z,995.13
2018-03-31T02:20:45.131Z,995.14
2018-03-31T02:21:45.086Z,995.10
2018-03-31T02:22:45.039Z,995.12
2018-03-31T02:23:44.997Z,995.08
2018-03-31T02:24:44.949Z,995.11
2018-03-31T02:25:44.900Z,995.12
2018-03-31T02:26:44.859Z,995.12
2018-03-31T02:27:44.810Z,995.10
2018-03-31T02:28:44.762Z,995.10
2018-03-31T02:29:44.717Z,995.08
2018-03-31T02:30:44.679Z,995.03
2018-03-31T02:31:44.625Z,995.05
2018-03-31T02:32:44.577Z,995.02
2018-03-31T02:33:44.542Z,995.04
2018-03-31T02:34:44.485Z,995.00
2018-03-31T02:35:44.441Z,995.00
2018-03-31T02:36:44.399Z,995.02
2018-03-31T02:37:44.347Z,995.02
2018-03-31T02:38:44.302Z,995.02
2018-03-31T02:39:44.255Z,995.02
2018-03-31T02:40:44.212Z,995.03
2018-03-31T02:41:44.181Z,995.04
2018-03-31T02:42:44.121Z,995.02
2018-03-31T02:43:44.071Z,995.02
2018-03-31T02:44:44.025Z,995.00
2018-03-31T02:45:43.976Z,995.01
2018-03-31T02:46:43.937Z,995.03
2018-03-31T02:47:43.890Z,995.02
2018-03-31T02:48:43.844Z,995.02
2018-03-31T02:49:43.794Z,994.97
2018-03-31T02:50:43.745Z,994.99
2018-03-31T02:51:43.698Z,994.95
2018-03-31T02:52:43.656Z,994.97
2018-03-31T02:53:43.610Z,994.93
2018-03-31T02:54:43.560Z,994.93
2018-03-31T02:55:43.514Z,994.89
2018-03-31T02:56:43.469Z,994.91
2018-03-31T02:57:43.423Z,994.93
2018-03-31T02:58:43.372Z,994.94
2018-03-31T02:59:43.329Z,994.92
2018-03-31T03:00:43.286Z,994.89
2018-03-31T03:01:43.239Z,994.89
2018-03-31T03:02:43.196Z,994.90
2018-03-31T03:03:43.139Z,994.89
2018-03-31T03:04:43.097Z,994.91
2018-03-31T03:05:43.047Z,994.89
2018-03-31T03:06:43.000Z,994.93
2018-03-31T03:07:42.956Z,994.91
2018-03-31T03:08:42.906Z,994.88
2018-03-31T03:09:42.861Z,994.89
2018-03-31T03:10:42.812Z,994.91
2018-03-31T03:11:42.766Z,994.88
2018-03-31T03:12:42.721Z,994.94
2018-03-31T03:13:42.673Z,994.94
2018-03-31T03:14:42.626Z,994.98
2018-03-31T03:15:42.580Z,995.00
2018-03-31T03:16:42.538Z,994.95
2018-03-31T03:17:42.488Z,994.99
2018-03-31T03:18:42.439Z,995.02
2018-03-31T03:19:42.391Z,995.03
2018-03-31T03:20:42.349Z,995.05
2018-03-31T03:21:42.300Z,995.09
2018-03-31T03:22:42.252Z,995.07
2018-03-31T03:23:42.205Z,995.08
2018-03-31T03:24:42.158Z,995.09
2018-03-31T03:25:42.115Z,995.11
2018-03-31T03:26:42.073Z,995.10
2018-03-31T03:27:42.017Z,995.09
2018-03-31T03:28:41.969Z,995.12
2018-03-31T03:29:41.924Z,995.11
2018-03-31T03:30:41.875Z,995.13
2018-03-31T03:31:41.829Z,995.11
2018-03-31T03:32:41.780Z,995.11
2018-03-31T03:33:41.734Z,995.10
2018-03-31T03:34:41.687Z,995.16
2018-03-31T03:35:41.641Z,995.14
2018-03-31T03:36:41.596Z,995.13
2018-03-31T03:37:41.549Z,995.14
2018-03-31T03:38:41.499Z,995.13
2018-03-31T03:39:41.451Z,995.12
2018-03-31T03:40:41.403Z,995.10
2018-03-31T03:41:41.361Z,995.15
2018-03-31T03:42:41.312Z,995.18
2018-03-31T03:43:41.277Z,995.18
2018-03-31T03:44:41.216Z,995.22
2018-03-31T03:45:41.169Z,995.27
2018-03-31T03:46:41.121Z,995.27
2018-03-31T03:47:41.121Z,995.31
2018-03-31T03:48:41.032Z,995.28
2018-03-31T03:49:40.982Z,995.30
2018-03-31T03:50:40.933Z,995.30
2018-03-31T03:51:40.888Z,995.28
2018-03-31T03:52:40.842Z,995.27
2018-03-31T03:53:40.791Z,995.30
2018-03-31T03:54:40.745Z,995.32
2018-03-31T03:55:40.696Z,995.30
2018-03-31T03:56:40.651Z,995.32
2018-03-31T03:57:40.602Z,995.33
2018-03-31T03:58:40.559Z,995.34
2018-03-31T03:59:40.508Z,995.37
2018-03-31T04:00:40.462Z,995.41
2018-03-31T04:01:40.414Z,995.44
2018-03-31T04:02:40.365Z,995.48
2018-03-31T04:03:40.324Z,995.47
2018-03-31T04:04:40.279Z,995.45
2018-03-31T04:05:40.226Z,995.49
2018-03-31T04:06:40.179Z,995.48
2018-03-31T04:07:40.129Z,995.52
2018-03-31T04:08:40.085Z,995.46
2018-03-31T04:09:40.038Z,995.46
2018-03-31T04:10:39.989Z,995.47
2018-03-31T04:11:39.940Z,995.50
2018-03-31T04:12:39.895Z,995.49
2018-03-31T04:13:39.848Z,995.54
2018-03-31T04:14:39.800Z,995.52
2018-03-31T04:15:39.754Z,995.53
2018-03-31T04:16:39.706Z,995.49
2018-03-31T04:17:39.660Z,995.49
2018-03-31T04:18:39.610Z,995.48
2018-03-31T04:19:39.564Z,995.47
2018-03-31T04:20:39.515Z,995.48
2018-03-31T04:21:39.467Z,995.46
2018-03-31T04:22:39.426Z,995.47
2018-03-31T04:23:39.374Z,995.47
2018-03-31T04:24:39.328Z,995.46
2018-03-31T04:25:39.280Z,995.45
2018-03-31T04:26:39.233Z,995.50
2018-03-31T04:27:39.182Z,995.49
2018-03-31T04:28:39.136Z,995.56
2018-03-31T04:29:39.092Z,995.59
2018-03-31T04:30:39.044Z,995.61
2018-03-31T04:31:38.994Z,995.69
2018-03-31T04:32:38.946Z,995.72
2018-03-31T04:33:38.900Z,995.72
2018-03-31T04:34:38.854Z,995.71
2018-03-31T04:35:38.801Z,995.66
2018-03-31T04:36:38.756Z,995.68
2018-03-31T04:37:38.707Z,995.65
2018-03-31T04:38:38.660Z,995.64
2018-03-31T04:39:38.614Z,995.64
2018-03-31T04:40:38.563Z,995.60
2018-03-31T04:41:38.522Z,995.61
2018-03-31T04:42:38.470Z,995.62
2018-03-31T04:43:38.422Z,995.61
2018-03-31T04:44:38.378Z,995.55
2018-03-31T04:45:38.332Z,995.57
2018-03-31T04:46:38.282Z,995.53
2018-03-31T04:47:38.236Z,995.53
2018-03-31T04:48:38.190Z,995.54
2018-03-31T04:49:38.139Z,995.53
2018-03-31T04:50:38.089Z,995.54
2018-03-31T04:51:38.044Z,995.55
2018-03-31T04:52:37.996Z,995.53
2018-03-31T04:53:37.951Z,995.57
2018-03-31T04:54:37.902Z,995.59
2018-03-31T04:55:37.855Z,995.59
2018-03-31T04:56:37.805Z,995.62
2018-03-31T04:57:37.764Z,995.56
2018-03-31T04:58:37.712Z,995.56
2018-03-31T04:59:37.658Z,995.53
2018-03-31T05:00:37.612Z,995.51
2018-03-31T05:01:37.566Z,995.47
2018-03-31T05:02:37.522Z,995.45
2018-03-31T05:03:37.467Z,995.43
2018-03-31T05:04:37.424Z,995.44
2018-03-31T05:05:37.381Z,995.45
2018-03-31T05:06:37.328Z,995.49
2018-03-31T05:07:37.278Z,995.44
2018-03-31T05:08:37.235Z,995.49
2018-03-31T05:09:37.182Z,995.47
2018-03-31T05:10:37.143Z,995.49
2018-03-31T05:11:37.088Z,995.48
2018-03-31T05:12:37.039Z,995.49
2018-03-31T05:13:36.995Z,995.46
2018-03-31T05:14:36.945Z,995.49
2018-03-31T05:15:36.895Z,995.47
2018-03-31T05:16:36.849Z,995.46
2018-03-31T05:17:36.799Z,995.46
2018-03-31T05:18:36.755Z,995.45
2018-03-31T05:19:36.704Z,995.47
2018-03-31T05:20:36.660Z,995.48
2018-03-31T05:21:36.610Z,995.55
2018-03-31T05:22:36.562Z,995.53
2018-03-31T05:23:36.522Z,995.56
2018-03-31T05:24:36.466Z,995.53
2018-03-31T05:25:36.423Z,995.50
2018-03-31T05:26:36.373Z,995.53
2018-03-31T05:27:36.324Z,995.51
2018-03-31T05:28:36.275Z,995.48
2018-03-31T05:29:36.232Z,995.49
2018-03-31T05:30:36.178Z,995.48
2018-03-31T05:31:36.133Z,995.48
2018-03-31T05:32:36.085Z,995.51
2018-03-31T05:33:36.038Z,995.52
2018-03-31T05:34:35.990Z,995.52
2018-03-31T05:35:35.940Z,995.52
2018-03-31T05:36:35.894Z,995.55
2018-03-31T05:37:35.844Z,995.58
2018-03-31T05:38:35.798Z,995.54
2018-03-31T05:39:35.747Z,995.54
2018-03-31T05:40:35.723Z,995.59
2018-03-31T05:41:35.662Z,995.61
2018-03-31T05:42:35.611Z,995.63
2018-03-31T05:43:35.557Z,995.58
2018-03-31T05:44:35.512Z,995.60
2018-03-31T05:45:35.462Z,995.60
2018-03-31T05:46:35.415Z,995.58
2018-03-31T05:47:35.369Z,995.60
2018-03-31T05:48:35.317Z,995.62
2018-03-31T05:49:35.274Z,995.64
2018-03-31T05:50:35.230Z,995.59
2018-03-31T05:51:35.174Z,995.59
2018-03-31T05:52:35.127Z,995.61
2018-03-31T05:53:35.079Z,995.56
2018-03-31T05:54:35.031Z,995.54
2018-03-31T05:55:34.983Z,995.64
2018-03-31T05:56:34.938Z,995.59
2018-03-31T05:57:34.887Z,995.58
2018-03-31T05:58:34.840Z,995.57
2018-03-31T05:59:34.792Z,995.60
2018-03-31T06:00:34.747Z,995.61
2018-03-31T06:01:34.700Z,995.58
2018-03-31T06:02:34.650Z,995.60
2018-03-31T06:03:34.632Z,995.56
2018-03-31T06:04:34.554Z,995.54
2018-03-31T06:05:34.508Z,995.56
2018-03-31T06:06:34.457Z,995.58
2018-03-31T06:07:34.421Z,995.50
2018-03-31T06:08:34.368Z,995.48
2018-03-31T06:09:34.316Z,995.51
2018-03-31T06:10:34.270Z,995.51
2018-03-31T06:11:34.223Z,995.51
2018-03-31T06:12:34.175Z,995.49
2018-03-31T06:13:34.126Z,995.46
2018-03-31T06:14:34.075Z,995.48
2018-03-31T06:15:34.026Z,995.50
2018-03-31T06:16:33.978Z,995.52
2018-03-31T06:17:33.932Z,995.50
2018-03-31T06:18:33.884Z,995.53
2018-03-31T06:19:33.844Z,995.55
2018-03-31T06:20:33.790Z,995.56
2018-03-31T06:21:33.742Z,995.61
2018-03-31T06:22:33.697Z,995.56
2018-03-31T06:23:33.647Z,995.56
2018-03-31T06:24:33.601Z,995.61
2018-03-31T06:25:33.553Z,995.57
2018-03-31T06:26:33.509Z,995.58
2018-03-31T06:27:33.456Z,995.60
2018-03-31T06:28:33.407Z,995.62
2018-03-31T06:29:33.372Z,995.64
2018-03-31T06:30:33.367Z,995.69
2018-03-31T06:31:33.266Z,995.66
2018-03-31T06:32:33.218Z,995.65
2018-03-31T06:33:33.173Z,995.66
2018-03-31T06:34:33.124Z,995.66
2018-03-31T06:35:33.080Z,995.67
2018-03-31T06:36:33.028Z,995.64
2018-03-31T06:37:32.982Z,995.67
2018-03-31T06:38:32.933Z,995.64
2018-03-31T06:39:32.887Z,995.63
2018-03-31T06:40:32.837Z,995.62
2018-03-31T06:41:32.790Z,995.63
2018-03-31T06:42:32.744Z,995.63
2018-03-31T06:43:32.748Z,995.66
2018-03-31T06:44:32.647Z,995.72
2018-03-31T06:45:32.601Z,995.71
2018-03-31T06:46:32.556Z,995.72
2018-03-31T06:47:32.507Z,995.73
2018-03-31T06:48:32.460Z,995.73
2018-03-31T06:49:32.445Z,995.72
2018-03-31T06:50:32.367Z,995.74
2018-03-31T06:51:32.319Z,995.77
2018-03-31T06:52:32.272Z,995.75
2018-03-31T06:53:32.229Z,995.74
2018-03-31T06:54:32.175Z,995.76
2018-03-31T06:55:32.131Z,995.76
2018-03-31T06:56:32.087Z,995.75
2018-03-31T06:57:32.034Z,995.81
2018-03-31T06:58:31.988Z,995.80
2018-03-31T06:59:31.944Z,995.77
2018-03-31T07:00:31.891Z,995.78
2018-03-31T07:01:31.844Z,995.83
2018-03-31T07:02:31.803Z,995.86
2018-03-31T07:03:31.756Z,995.83
2018-03-31T07:04:31.705Z,995.83
2018-03-31T07:05:31.662Z,995.89
2018-03-31T07:06:31.616Z,995.89
2018-03-31T07:07:31.568Z,995.89
2018-03-31T07:08:31.520Z,995.91
2018-03-31T07:09:31.471Z,995.93
2018-03-31T07:10:31.427Z,995.92
2018-03-31T07:11:31.379Z,995.89
2018-03-31T07:12:31.348Z,995.92
2018-03-31T07:13:31.293Z,995.91
2018-03-31T07:14:31.248Z,995.95
2018-03-31T07:15:31.257Z,995.99
2018-03-31T07:16:31.159Z,996.01
2018-03-31T07:17:31.114Z,996.03
2018-03-31T07:18:31.063Z,996.04
2018-03-31T07:19:31.020Z,996.03
2018-03-31T07:20:30.973Z,996.05
2018-03-31T07:21:30.929Z,996.04
2018-03-31T07:22:30.883Z,996.06
2018-03-31T07:23:30.851Z,996.10
2018-03-31T07:24:30.794Z,996.08
2018-03-31T07:25:30.753Z,996.13
2018-03-31T07:26:30.706Z,996.13
2018-03-31T07:27:30.661Z,996.16
2018-03-31T07:28:30.622Z,996.14
2018-03-31T07:29:30.575Z,996.17
2018-03-31T07:30:30.535Z,996.16
2018-03-31T07:31:30.487Z,996.19
2018-03-31T07:32:30.443Z,996.16
2018-03-31T07:33:30.406Z,996.18
2018-03-31T07:34:30.359Z,996.17
2018-03-31T07:35:30.319Z,996.16
2018-03-31T07:36:30.274Z,996.12
2018-03-31T07:37:30.231Z,996.20
2018-03-31T07:38:30.188Z,996.24
2018-03-31T07:39:30.145Z,996.20
2018-03-31T07:40:30.100Z,996.24
2018-03-31T07:41:30.056Z,996.22
2018-03-31T07:42:30.015Z,996.21
2018-03-31T07:43:29.970Z,996.24
2018-03-31T07:44:29.926Z,996.28
2018-03-31T07:45:29.887Z,996.28
2018-03-31T07:46:29.844Z,996.28
2018-03-31T07:47:29.808Z,996.30
2018-03-31T07:48:29.758Z,996.26
2018-03-31T07:49:29.718Z,996.29
2018-03-31T07:50:29.675Z,996.26
2018-03-31T07:51:29.632Z,996.27
2018-03-31T07:52:29.595Z,996.29
2018-03-31T07:53:29.550Z,996.28
2018-03-31T07:54:29.507Z,996.32
2018-03-31T07:55:29.465Z,996.28
2018-03-31T07:56:29.425Z,996.31
2018-03-31T07:57:29.383Z,996.39
2018-03-31T07:58:29.346Z,996.35
2018-03-31T07:59:29.299Z,996.36
2018-03-31T08:00:29.259Z,996.33
2018-03-31T08:01:29.224Z,996.33
2018-03-31T08:02:29.177Z,996.33
2018-03-31T08:03:29.135Z,996.29
2018-03-31T08:04:29.097Z,996.30
2018-03-31T08:05:29.055Z,996.30
2018-03-31T08:06:29.015Z,996.32
2018-03-31T08:07:28.978Z,996.31
2018-03-31T08:08:28.936Z,996.34
2018-03-31T08:09:28.895Z,996.33
2018-03-31T08:10:28.854Z,996.34
2018-03-31T08:11:28.813Z,996.34
2018-03-31T08:12:28.776Z,996.37
2018-03-31T08:13:28.731Z,996.29
2018-03-31T08:14:28.694Z,996.32
2018-03-31T08:15:28.654Z,996.32
2018-03-31T08:16:28.612Z,996.32
2018-03-31T08:17:28.573Z,996.36
2018-03-31T08:18:28.532Z,996.34
2018-03-31T08:19:28.495Z,996.37
2018-03-31T08:20:28.450Z,996.39
2018-03-31T08:21:28.411Z,996.38
2018-03-31T08:22:28.372Z,996.41
2018-03-31T08:23:28.343Z,996.41
2018-03-31T08:24:28.294Z,996.41
2018-03-31T08:25:28.256Z,996.42
2018-03-31T08:26:28.215Z,996.43
2018-03-31T08:27:28.177Z,996.40
2018-03-31T08:28:28.139Z,996.39
2018-03-31T08:29:28.099Z,996.43
2018-03-31T08:30:28.085Z,996.38
2018-03-31T08:31:28.028Z,996.43
2018-03-31T08:32:27.984Z,996.42
2018-03-31T08:33:27.946Z,996.41
2018-03-31T08:34:27.909Z,996.40
2018-03-31T08:35:27.870Z,996.40
2018-03-31T08:36:27.834Z,996.40
2018-03-31T08:37:27.793Z,996.40
2018-03-31T08:38:27.756Z,996.39
2018-03-31T08:39:27.717Z,996.40
2018-03-31T08:40:27.680Z,996.38
2018-03-31T08:41:27.649Z,996.33
2018-03-31T08:42:27.611Z,996.34
2018-03-31T08:43:27.567Z,996.36
2018-03-31T08:44:27.532Z,996.36
2018-03-31T08:45:27.492Z,996.36
2018-03-31T08:46:27.456Z,996.36
2018-03-31T08:47:27.419Z,996.35
2018-03-31T08:48:27.386Z,996.34
2018-03-31T08:49:27.346Z,996.33
2018-03-31T08:50:27.309Z,996.33
2018-03-31T08:51:27.270Z,996.37
2018-03-31T08:52:27.237Z,996.36
2018-03-31T08:53:27.197Z,996.38
2018-03-31T08:54:27.159Z,996.37
2018-03-31T08:55:27.123Z,996.39
2018-03-31T08:56:27.088Z,996.35
2018-03-31T08:57:27.052Z,996.35
2018-03-31T08:58:27.015Z,996.35
2018-03-31T08:59:26.977Z,996.34
2018-03-31T09:00:26.945Z,996.36
2018-03-31T09:01:26.904Z,996.38
2018-03-31T09:02:26.867Z,996.34
2018-03-31T09:03:26.831Z,996.35
2018-03-31T09:04:26.795Z,996.33
2018-03-31T09:05:26.760Z,996.33
2018-03-31T09:06:26.721Z,996.39
2018-03-31T09:07:26.692Z,996.34
2018-03-31T09:08:26.648Z,996.37
2018-03-31T09:09:26.616Z,996.38
2018-03-31T09:10:26.579Z,996.36
2018-03-31T09:11:26.544Z,996.39
2018-03-31T09:12:26.502Z,996.39
2018-03-31T09:13:26.465Z,996.40
2018-03-31T09:14:26.432Z,996.40
2018-03-31T09:15:26.416Z,996.41
2018-03-31T09:16:26.358Z,996.40
2018-03-31T09:17:26.319Z,996.42
2018-03-31T09:18:26.281Z,996.37
2018-03-31T09:19:26.244Z,996.36
2018-03-31T09:20:26.210Z,996.40
2018-03-31T09:21:26.171Z,996.38
2018-03-31T09:22:26.135Z,996.43
2018-03-31T09:23:26.102Z,996.43
2018-03-31T09:24:26.061Z,996.41
2018-03-31T09:25:26.028Z,996.38
2018-03-31T09:26:25.990Z,996.37
2018-03-31T09:27:25.950Z,996.33
2018-03-31T09:28:25.914Z,996.36
2018-03-31T09:29:25.872Z,996.38
2018-03-31T09:30:25.836Z,996.35
2018-03-31T09:31:25.805Z,996.39
2018-03-31T09:32:25.767Z,996.35
2018-03-31T09:33:25.725Z,996.37
2018-03-31T09:34:25.690Z,996.41
2018-03-31T09:35:25.651Z,996.41
2018-03-31T09:36:25.611Z,996.39
2018-03-31T09:37:25.577Z,996.45
2018-03-31T09:38:25.539Z,996.43
2018-03-31T09:39:25.498Z,996.42
2018-03-31T09:40:25.460Z,996.43
2018-03-31T09:41:25.424Z,996.50
2018-03-31T09:42:25.398Z,996.46
2018-03-31T09:43:25.346Z,996.50
2018-03-31T09:44:25.308Z,996.53
2018-03-31T09:45:25.276Z,996.50
2018-03-31T09:46:25.235Z,996.51
2018-03-31T09:47:25.196Z,996.48
2018-03-31T09:48:25.164Z,996.51
2018-03-31T09:49:25.119Z,996.49
2018-03-31T09:50:25.083Z,996.52
2018-03-31T09:51:25.045Z,996.49
2018-03-31T09:52:25.007Z,996.47
2018-03-31T09:53:24.969Z,996.51
2018-03-31T09:54:24.928Z,996.45
2018-03-31T09:55:24.892Z,996.48
2018-03-31T09:56:24.853Z,996.45
2018-03-31T09:57:24.813Z,996.47
2018-03-31T09:58:24.788Z,996.49
2018-03-31T09:59:24.738Z,996.43
2018-03-31T10:00:24.747Z,996.44
2018-03-31T10:01:24.663Z,996.46
2018-03-31T10:02:24.621Z,996.48
2018-03-31T10:03:24.584Z,996.48
2018-03-31T10:04:24.542Z,996.51
2018-03-31T10:05:24.508Z,996.46
2018-03-31T10:06:24.467Z,996.47
2018-03-31T10:07:24.434Z,996.48
2018-03-31T10:08:24.395Z,996.44
2018-03-31T10:09:24.355Z,996.48
2018-03-31T10:10:24.311Z,996.38
2018-03-31T10:11:24.274Z,996.44
2018-03-31T10:12:24.235Z,996.49
2018-03-31T10:13:24.198Z,996.49
2018-03-31T10:14:24.158Z,996.50
2018-03-31T10:15:24.120Z,996.44
2018-03-31T10:16:24.082Z,996.43
2018-03-31T10:17:24.041Z,996.46
2018-03-31T10:18:24.003Z,996.44
2018-03-31T10:19:23.971Z,996.45
2018-03-31T10:20:23.927Z,996.44
2018-03-31T10:21:23.889Z,996.50
2018-03-31T10:22:23.853Z,996.51
2018-03-31T10:23:23.814Z,996.49
2018-03-31T10:24:23.775Z,996.50
2018-03-31T10:25:23.735Z,996.43
2018-03-31T10:26:23.702Z,996.47
2018-03-31T10:27:23.654Z,996.42
2018-03-31T10:28:23.618Z,996.45
2018-03-31T10:29:23.579Z,996.42
2018-03-31T10:30:23.541Z,996.42
2018-03-31T10:31:23.500Z,996.41
2018-03-31T10:32:23.464Z,996.41
2018-03-31T10:33:23.426Z,996.39
2018-03-31T10:34:23.386Z,996.47
2018-03-31T10:35:23.393Z,996.45
2018-03-31T10:36:23.311Z,996.43
2018-03-31T10:37:23.272Z,996.46
2018-03-31T10:38:23.230Z,996.45
2018-03-31T10:39:23.195Z,996.41
2018-03-31T10:40:23.157Z,996.38
2018-03-31T10:41:23.116Z,996.41
2018-03-31T10:42:23.080Z,996.40
2018-03-31T10:43:23.037Z,996.41
2018-03-31T10:44:23.004Z,996.43
2018-03-31T10:45:22.962Z,996.46
2018-03-31T10:46:22.921Z,996.39
2018-03-31T10:47:22.927Z,996.38
2018-03-31T10:48:22.844Z,996.39
2018-03-31T10:49:22.808Z,996.41
2018-03-31T10:50:22.765Z,996.50
2018-03-31T10:51:22.728Z,996.41
2018-03-31T10:52:22.729Z,996.44
2018-03-31T10:53:22.651Z,996.45
2018-03-31T10:54:22.609Z,996.49
2018-03-31T10:55:22.581Z,996.48
2018-03-31T10:56:22.537Z,996.48
2018-03-31T10:57:22.493Z,996.49
2018-03-31T10:58:22.457Z,996.48
2018-03-31T10:59:22.413Z,996.53
2018-03-31T11:00:22.401Z,996.53
2018-03-31T11:01:22.335Z,996.47
2018-03-31T11:02:22.298Z,996.54
2018-03-31T11:03:22.258Z,996.49
2018-03-31T11:04:22.218Z,996.48
2018-03-31T11:05:22.180Z,996.54
2018-03-31T11:06:22.142Z,996.50
2018-03-31T11:07:22.101Z,996.53
2018-03-31T11:08:22.071Z,996.51
2018-03-31T11:09:22.023Z,996.53
2018-03-31T11:10:21.989Z,996.52
2018-03-31T11:11:21.944Z,996.50
2018-03-31T11:12:21.906Z,996.54
2018-03-31T11:13:21.864Z,996.49
2018-03-31T11:14:21.828Z,996.51
2018-03-31T11:15:21.790Z,996.53
2018-03-31T11:16:21.747Z,996.50
2018-03-31T11:17:21.708Z,996.48
2018-03-31T11:18:21.670Z,996.51
2018-03-31T11:19:21.631Z,996.56
2018-03-31T11:20:21.590Z,996.54
2018-03-31T11:21:21.554Z,996.53
2018-03-31T11:22:21.512Z,996.54
2018-03-31T11:23:21.473Z,996.56
2018-03-31T11:24:21.467Z,996.51
2018-03-31T11:25:21.399Z,996.52
2018-03-31T11:26:21.358Z,996.51
2018-03-31T11:27:21.318Z,996.47
2018-03-31T11:28:21.280Z,996.51
2018-03-31T11:29:21.240Z,996.53
2018-03-31T11:30:21.199Z,996.51
2018-03-31T11:31:21.169Z,996.50
2018-03-31T11:32:21.173Z,996.46
2018-03-31T11:33:21.085Z,996.46
2018-03-31T11:34:21.095Z,996.50
2018-03-31T11:35:21.021Z,996.46
2018-03-31T11:36:20.970Z,996.45
2018-03-31T11:37:20.931Z,996.50
2018-03-31T11:38:20.895Z,996.44
2018-03-31T11:39:20.854Z,996.46
2018-03-31T11:40:20.815Z,996.50
2018-03-31T11:41:20.779Z,996.50
2018-03-31T11:42:20.754Z,996.46
2018-03-31T11:43:20.802Z,996.48
2018-03-31T11:44:20.718Z,996.50
2018-03-31T11:45:20.638Z,996.50
2018-03-31T11:46:20.605Z,996.52
2018-03-31T11:47:20.554Z,996.52
2018-03-31T11:49:20.484Z,996.51
2018-03-31T11:50:20.451Z,996.51
2018-03-31T11:51:20.410Z,996.52
2018-03-31T11:52:20.379Z,996.50
2018-03-31T11:53:20.338Z,996.50
2018-03-31T11:54:20.307Z,996.55
2018-03-31T11:55:20.267Z,996.55
2018-03-31T11:56:20.232Z,996.53
2018-03-31T11:57:20.200Z,996.50
2018-03-31T11:58:20.167Z,996.53
2018-03-31T11:59:20.132Z,996.53
2018-03-31T12:00:20.101Z,996.51
2018-03-31T12:01:20.052Z,996.53
2018-03-31T12:02:20.022Z,996.49
2018-03-31T12:03:19.986Z,996.53
2018-03-31T12:04:19.951Z,996.54
2018-03-31T12:05:19.911Z,996.54
2018-03-31T12:06:19.876Z,996.46
2018-03-31T12:07:19.840Z,996.53
2018-03-31T12:08:19.802Z,996.49
2018-03-31T12:09:19.766Z,996.47
2018-03-31T12:10:19.735Z,996.49
2018-03-31T12:11:19.697Z,996.45
2018-03-31T12:12:19.659Z,996.49
2018-03-31T12:13:19.626Z,996.47
2018-03-31T12:14:19.589Z,996.46
2018-03-31T12:15:19.561Z,996.50
2018-03-31T12:16:19.523Z,996.49
2018-03-31T12:17:19.484Z,996.45
2018-03-31T12:18:19.495Z,996.48
2018-03-31T12:19:19.435Z,996.39
2018-03-31T12:20:19.382Z,996.46
2018-03-31T12:21:19.347Z,996.43
2018-03-31T12:22:19.313Z,996.48
2018-03-31T12:23:19.277Z,996.42
2018-03-31T12:24:19.240Z,996.42
2018-03-31T12:25:19.207Z,996.42
2018-03-31T12:26:19.173Z,996.42
2018-03-31T12:27:19.136Z,996.42
2018-03-31T12:28:19.101Z,996.44
2018-03-31T12:29:19.071Z,996.46